This is the latest recevied weather packets stored in our database for station/object WMKK. If no packets are shown the sender has not sent any weather packets the latest 10 day(s).
| Time | Temp. | Humidity | Pressure | Rain* | Wind** | Luminosity | Snow |
|---|---|---|---|---|---|---|---|
| 1777540791 | 30.56° C | 74% | 1006 hPa | - | - | - | - |
| 1777540217 | 30.56° C | 74% | 1006 hPa | - | - | - | - |
| 1777538394 | 31.67° C | 70% | 1005 hPa | - | - | - | - |
| 1777536609 | 32.78° C | 70% | 1005 hPa | - | - | - | - |
| 1777534791 | 32.78° C | 70% | 1006 hPa | - | - | - | - |
| 1777533009 | 32.78° C | 70% | 1007 hPa | - | - | - | - |
| 1777531191 | 33.89° C | 66% | 1007 hPa | - | - | - | - |
| 1777529409 | 33.89° C | 66% | 1007 hPa | - | - | - | - |
| 1777527591 | 32.78° C | 66% | 1008 hPa | - | - | - | - |
| 1777525816 | 31.67° C | 70% | 1008 hPa | - | - | - | - |
| 1777523994 | 31.67° C | 70% | 1009 hPa | - | - | - | - |
| 1777522208 | 31.67° C | 70% | 1009 hPa | - | - | - | - |
| 1777520987 | 31.67° C | 66% | 1010 hPa | - | - | - | - |
| 1777518608 | 31.67° C | 66% | 1010 hPa | - | - | - | - |
| 1777516791 | 31.67° C | 66% | 1010 hPa | - | - | - | - |
| 1777515008 | 30.56° C | 70% | 1009 hPa | - | - | - | - |
| 1777513191 | 30° C | 79% | 1009 hPa | - | - | - | - |
| 1777511409 | 28.89° C | 83% | 1009 hPa | - | - | - | - |
| 1777509590 | 27.78° C | 88% | 1009 hPa | - | - | - | - |
| 1777507822 | 26.67° C | 88% | 1009 hPa | - | - | - | - |
| 1777505990 | 25.56° C | 94% | 1008 hPa | - | - | - | - |
| 1777504208 | 25.56° C | 94% | 1008 hPa | - | - | - | - |
| 1777502390 | 25.56° C | 94% | 1008 hPa | - | - | - | - |
| 1777500608 | 26.67° C | 88% | 1008 hPa | - | - | - | - |
| 1777498790 | 26.67° C | 88% | 1008 hPa | - | - | - | - |
* Rain since midnight (hover to see other rain measurements)
** Current wind speed in m/s (hover to see current wind gust speed)